AirNav   Everest Fuels
 
 1341 users online  

55OK Gilstrap Field Airport
Inola, Oklahoma, USA

GOING TO INOLA?


FAA INFORMATION EFFECTIVE 01 DECEMBER 2022

Location

FAA Identifier: 55OK
Lat/Long: 36-13-26.3520N 095-34-41.9190W
36-13.439200N 095-34.698650W
36.2239867,-95.5783108
(estimated)
Elevation: 575 ft. / 175 m (estimated)
Variation: 06E (1985)
From city: 6 miles NW of INOLA, OK
Time zone: UTC -6 (UTC -5 during Daylight Saving Time)
Zip code: 74036

Airport Operations

Airport use: Private use. Permission required prior to landing
Activation date: 01/1987
Control tower: no
ARTCC: KANSAS CITY CENTER
FSS: MC ALESTER FLIGHT SERVICE STATION
Attendance: SR-SS
Wind indicator: yes
Segmented circle: no

Airport Communications

WX AWOS-3P at GCM (6 nm NE): 119.925 (918-343-0184)
WX AWOS-3PT at H71 (12 nm E): 120.1 (918-476-0517)
WX ASOS at TUL (15 nm W): PHONE 918-831-6772

Nearby radio navigation aids

VOR radial/distance  VOR name  Freq  Var
TULr073/10.3TULSA VORTAC114.4008E
OKMr016/34.8OKMULGEE VOR/DME114.9008E

Airport Services

Runway Information

Runway 18/36

Dimensions: 1700 x 40 ft. / 518 x 12 m
Surface: turf, in fair condition
Operational restrictions: RWY 36 HAS 500' STOPWAY (NOT MKD); RWY 18 HAS 400' STOPWAY (NOT MKD). BOTH AREAS ARE SUITABLE FOR USE FOR TAKEOFF.
RUNWAY 18  RUNWAY 36
Traffic pattern: leftleft
Obstructions: 25 ft. trees, 500 ft. from runway30 ft. pline, marked, 400 ft. from runway

Airport Ownership and Management from official FAA records

Ownership: Privately-owned
Owner: STANLEY C. GILSTRAP
14195 EAST 550 RD
INOLA, OK 74036
Phone 918-543-8135
Manager: STANLEY C. GILSTRAP
14195 EAST 550 RD
INOLA, OK 74036
Phone 918-543-8135

Airport Operational Statistics

Aircraft based on the field: 2
Single engine airplanes: 2
    

Additional Remarks

A30A-18 400 FT UNMKD STWY SUITABLE FOR TKOF.
A30A-36 500 FT UNMKD STWY SUITABLE FOR TKOF.
FOR CD CTC TULSA APCH AT 918-831-6714/6720.

Instrument Procedures

There are no published instrument procedures at 55OK.

Some nearby airports with instrument procedures:

KGCM - Claremore Regional Airport (6 nm NE)
H71 - Mid-America Industrial Airport (12 nm E)
KTUL - Tulsa International Airport (15 nm W)
H68 - Hefner-Easley Airport (19 nm SE)
KRVS - Tulsa Riverside Airport (23 nm SW)
 
Loc | Ops | Rwys | IFR | FBO | Links
Com | Nav | Svcs | Stats | Notes
Area around 55OK (Gilstrap Field Airport)
 
Road maps at: MapQuest Bing Google
 
Aerial photo
WARNING: Photo may not be current or correct
Aerial photo of 55OK (Gilstrap Field Airport)
Photo by Stan Gilstrap
Photo taken 29-Nov-2004
from a Taylorcraft

Do you have a better or more recent aerial photo of Gilstrap Field Airport that you would like to share? If so, please send us your photo.

 
Sectional chart

 
Airport distance calculator
Flying to Gilstrap Field Airport? Find the distance to fly.

From to 55OK

Sunrise and sunset
Times for 02-Dec-2022
 Local
(UTC-6)
 Zulu
(UTC)
Morning civil twilight06:4912:49
Sunrise07:1713:17
Sunset17:0723:07
Evening civil twilight17:3523:35

Current date and time
Zulu (UTC)  02-Dec-2022 15:35:41
Local (UTC-6)  02-Dec-2022 09:35:41
 
METAR
KGCM 
6nm NE 
021515Z AUTO 19019G27KT 10SM OVC016 11/07 A2997 RMK AO2
KH71 
12nm E 
021515Z AUTO 18018G24KT 10SM OVC017 11/06 A2997 RMK AO2
KTUL 
15nm W 
021453Z 17015G27KT 10SM OVC018 11/06 A2996 RMK AO2 PK WND 16027/1446 SLP143 T01060061 58013
TAF
KTUL 
15nm W 
021121Z 0212/0312 18015G25KT P6SM OVC025 FM021600 20023G37KT P6SM OVC015 FM022000 20022G34KT P6SM BKN040 FM030100 20010G21KT P6SM BKN250 FM030300 25014KT P6SM BKN250 FM030500 36022G32KT P6SM BKN250 FM031000 35015G23KT P6SM SCT250
NOTAMs
Click for the latest NOTAMs
NOTAMs are issued by the DoD/FAA and will open in a separate window not controlled by AirNav.

 

 
 

Would you like to see your business listed on this page?

 If your business provides an interesting product or service to pilots, flight crews, aircraft, or users of the Gilstrap Field Airport, you should consider listing it here.  To start the listing process, click on the button below
 
Add a business
 

Other Pages about Gilstrap Field Airport

www.gilstrapfield.com
 
Update a link
 
Copyright © AirNav, LLC. All rights reserved. Privacy Policy  Contact